createdAt,value
2022-10-23T00:00:27.934Z,100856.66
2022-10-23T00:03:30.475Z,100867.81
2022-10-23T00:06:34.512Z,100862.81
2022-10-23T00:09:37.117Z,100867.00
2022-10-23T00:12:39.508Z,100863.63
2022-10-23T00:15:42.229Z,100877.87
2022-10-23T00:18:45.747Z,100883.69
2022-10-23T00:21:48.362Z,100872.09
2022-10-23T00:24:50.751Z,100888.44
2022-10-23T00:27:53.411Z,100889.88
2022-10-23T00:30:55.947Z,100886.03
2022-10-23T00:33:58.652Z,100889.69
2022-10-23T00:37:01.768Z,100889.44
2022-10-23T00:40:05.230Z,100906.12
2022-10-23T00:43:13.931Z,100906.66
2022-10-23T00:46:16.529Z,100908.63
2022-10-23T00:49:20.221Z,100909.75
2022-10-23T00:52:22.774Z,100912.00
2022-10-23T00:55:26.648Z,100908.13
2022-10-23T00:58:29.499Z,100909.75
2022-10-23T01:01:32.286Z,100914.72
2022-10-23T01:04:35.738Z,100919.75
2022-10-23T01:07:56.327Z,100917.25
2022-10-23T01:11:10.178Z,100923.66
2022-10-23T01:14:37.687Z,100926.50
2022-10-23T01:18:00.741Z,100924.84
2022-10-23T01:21:14.237Z,100932.06
2022-10-23T01:24:47.089Z,100942.63
2022-10-23T01:27:56.246Z,100954.84
2022-10-23T01:31:02.370Z,100942.00
2022-10-23T01:34:32.934Z,100942.56
2022-10-23T01:37:49.804Z,100947.00
2022-10-23T01:41:07.656Z,100949.28
2022-10-23T01:44:18.791Z,100949.50
2022-10-23T01:47:27.249Z,100938.13
2022-10-23T01:50:31.511Z,100950.94
2022-10-23T01:53:41.283Z,100951.44
2022-10-23T01:56:48.198Z,100953.41
2022-10-23T01:59:55.235Z,100948.19
2022-10-23T02:02:58.889Z,100942.00
2022-10-23T02:06:01.972Z,100943.72
2022-10-23T02:09:06.748Z,100944.28
2022-10-23T02:15:47.985Z,100944.22
2022-10-23T02:18:57.160Z,100943.41
2022-10-23T02:22:15.082Z,100946.22
2022-10-23T02:25:24.630Z,100949.06
2022-10-23T02:28:34.800Z,100935.16
2022-10-23T02:31:37.787Z,100946.03
2022-10-23T02:34:40.060Z,100941.84
2022-10-23T02:37:53.056Z,100949.94
2022-10-23T02:41:19.719Z,100954.16
2022-10-23T02:45:07.261Z,100957.50
2022-10-23T02:48:20.154Z,100957.81
2022-10-23T02:51:41.939Z,100968.38
2022-10-23T02:54:56.505Z,100974.19
2022-10-23T02:58:12.602Z,100965.03
2022-10-23T03:01:20.697Z,100971.72
2022-10-23T03:04:26.236Z,100966.72
2022-10-23T03:07:28.768Z,100981.19
2022-10-23T03:10:37.031Z,100978.41
2022-10-23T03:13:41.148Z,100973.41
2022-10-23T03:16:43.711Z,100982.59
2022-10-23T03:19:45.959Z,100976.72
2022-10-23T03:22:49.657Z,100983.94
2022-10-23T03:25:52.955Z,100980.66
2022-10-23T03:28:59.986Z,100988.22
2022-10-23T03:32:02.419Z,100991.28
2022-10-23T03:35:05.397Z,100992.41
2022-10-23T03:38:08.204Z,100993.56
2022-10-23T03:41:10.962Z,100991.59
2022-10-23T03:44:13.312Z,100993.03
2022-10-23T03:47:19.423Z,100996.94
2022-10-23T03:50:21.721Z,101014.19
2022-10-23T03:53:24.267Z,101015.28
2022-10-23T03:56:26.563Z,101006.97
2022-10-23T03:59:29.766Z,101011.16
2022-10-23T04:02:33.781Z,101013.37
2022-10-23T04:05:36.323Z,101011.16
2022-10-23T04:08:38.734Z,101015.84
2022-10-23T04:11:43.611Z,101014.75
2022-10-23T04:14:45.982Z,101013.09
2022-10-23T04:17:48.575Z,101005.84
2022-10-23T04:20:51.541Z,101010.28
2022-10-23T04:23:54.158Z,101006.97
2022-10-23T04:26:57.631Z,100998.31
2022-10-23T04:30:03.779Z,100995.28
2022-10-23T04:33:06.058Z,100994.44
2022-10-23T04:36:09.961Z,101006.41
2022-10-23T04:39:12.880Z,100989.16
2022-10-23T04:42:15.551Z,100987.78
2022-10-23T04:45:17.852Z,100986.41
2022-10-23T04:48:21.741Z,100988.09
2022-10-23T04:51:28.050Z,100993.37
2022-10-23T04:54:38.779Z,100984.50
2022-10-23T04:57:41.174Z,101000.34
2022-10-23T05:00:44.945Z,101003.66
2022-10-23T05:03:51.299Z,101013.41
2022-10-23T05:06:54.154Z,101013.97
2022-10-23T05:09:56.800Z,101013.44
2022-10-23T05:12:59.875Z,101014.81
2022-10-23T05:16:02.086Z,101022.06
2022-10-23T05:19:07.922Z,101021.50
2022-10-23T05:22:11.371Z,101021.50
2022-10-23T05:25:17.966Z,101017.06
2022-10-23T05:28:20.451Z,101017.31
2022-10-23T05:31:25.003Z,101010.37
2022-10-23T05:34:33.305Z,101008.69
2022-10-23T05:37:39.907Z,101011.75
2022-10-23T05:40:42.467Z,101010.88
2022-10-23T05:43:49.116Z,101016.72
2022-10-23T05:46:52.375Z,101017.53
2022-10-23T05:49:54.984Z,101033.66
2022-10-23T05:52:57.619Z,101043.09
2022-10-23T05:56:05.808Z,101041.44
2022-10-23T05:59:10.382Z,101039.47
2022-10-23T06:02:14.726Z,101030.84
2022-10-23T06:05:17.720Z,101033.00
2022-10-23T06:08:20.528Z,101036.84
2022-10-23T06:11:23.708Z,101032.94
2022-10-23T06:14:27.063Z,101045.12
2022-10-23T06:17:29.970Z,101047.88
2022-10-23T06:20:35.563Z,101046.72
2022-10-23T06:23:40.069Z,101042.50
2022-10-23T06:26:43.043Z,101055.00
2022-10-23T06:29:45.640Z,101057.72
2022-10-23T06:32:48.051Z,101059.06
2022-10-23T06:35:50.916Z,101069.91
2022-10-23T06:38:53.383Z,101062.94
2022-10-23T06:41:56.651Z,101073.16
2022-10-23T06:45:08.805Z,101078.38
2022-10-23T06:48:13.969Z,101084.47
2022-10-23T06:51:18.189Z,101087.00
2022-10-23T06:54:20.805Z,101081.59
2022-10-23T06:57:26.679Z,101080.38
2022-10-23T07:00:29.363Z,101091.19
2022-10-23T07:03:32.707Z,101091.37
2022-10-23T07:06:37.047Z,101091.88
2022-10-23T07:09:39.849Z,101098.69
2022-10-23T07:12:47.676Z,101104.19
2022-10-23T07:15:54.502Z,101101.34
2022-10-23T07:18:59.724Z,101096.91
2022-10-23T07:22:06.000Z,101095.75
2022-10-23T07:25:09.251Z,101099.91
2022-10-23T07:28:11.640Z,101106.47
2022-10-23T07:31:14.616Z,101110.94
2022-10-23T07:34:17.936Z,101115.03
2022-10-23T07:37:21.053Z,101108.69
2022-10-23T07:40:23.469Z,101108.53
2022-10-23T07:43:27.184Z,101104.59
2022-10-23T07:46:29.487Z,101101.66
2022-10-23T07:49:32.057Z,101100.75
2022-10-23T07:52:36.211Z,101102.31
2022-10-23T07:55:40.575Z,101087.94
2022-10-23T07:58:44.135Z,101101.37
2022-10-23T08:01:50.487Z,101102.28
2022-10-23T08:04:55.737Z,101095.47
2022-10-23T08:07:58.664Z,101092.69
2022-10-23T08:11:01.180Z,101093.19
2022-10-23T08:14:05.877Z,101094.75
2022-10-23T08:17:09.978Z,101089.66
2022-10-23T08:20:18.347Z,101089.78
2022-10-23T08:23:21.348Z,101087.09
2022-10-23T08:26:25.035Z,101084.63
2022-10-23T08:29:28.094Z,101087.53
2022-10-23T08:32:30.883Z,101087.63
2022-10-23T08:35:39.534Z,101086.16
2022-10-23T08:38:41.954Z,101083.56
2022-10-23T08:41:51.544Z,101086.47
2022-10-23T08:45:07.913Z,101091.88
2022-10-23T08:48:21.304Z,101097.87
2022-10-23T08:51:40.508Z,101093.81
2022-10-23T08:55:07.549Z,101095.66
2022-10-23T08:58:29.639Z,101096.41
2022-10-23T09:01:38.438Z,101093.38
2022-10-23T09:04:43.594Z,101092.69
2022-10-23T09:08:18.161Z,101081.03
2022-10-23T09:11:32.656Z,101092.56
2022-10-23T09:15:04.114Z,101084.16
2022-10-23T09:18:16.570Z,101082.28
2022-10-23T09:21:19.165Z,101088.28
2022-10-23T09:24:23.786Z,101088.22
2022-10-23T09:27:26.357Z,101086.31
2022-10-23T09:30:38.354Z,101092.44
2022-10-23T09:33:41.824Z,101092.09
2022-10-23T09:36:51.055Z,101089.66
2022-10-23T09:40:19.596Z,101099.94
2022-10-23T09:43:24.123Z,101110.88
2022-10-23T09:49:55.861Z,101106.28
2022-10-23T09:52:58.664Z,101110.56
2022-10-23T09:56:04.856Z,101107.50
2022-10-23T09:59:13.156Z,101107.38
2022-10-23T10:02:29.101Z,101110.94
2022-10-23T10:05:36.462Z,101105.41
2022-10-23T10:08:53.143Z,101104.13
2022-10-23T10:12:03.229Z,101098.97
2022-10-23T10:15:18.643Z,101098.22
2022-10-23T10:18:47.186Z,101099.34
2022-10-23T10:22:11.025Z,101087.47
2022-10-23T10:25:49.763Z,101077.22
2022-10-23T10:29:05.272Z,101070.78
2022-10-23T10:32:21.646Z,101070.59
2022-10-23T10:35:48.183Z,101068.06
2022-10-23T10:38:54.709Z,101064.91
2022-10-23T10:42:24.295Z,101057.47
2022-10-23T10:45:33.363Z,101064.59
2022-10-23T10:48:41.394Z,101054.28
2022-10-23T10:52:06.791Z,101057.19
2022-10-23T10:55:49.207Z,101046.84
2022-10-23T10:59:28.890Z,101053.50
2022-10-23T11:02:44.040Z,101053.50
2022-10-23T11:05:51.615Z,101035.56
2022-10-23T11:09:15.584Z,101026.69
2022-10-23T11:12:20.530Z,101028.56
2022-10-23T11:15:29.032Z,101028.44
2022-10-23T11:18:33.728Z,101008.75
2022-10-23T11:22:06.767Z,101010.50
2022-10-23T11:25:47.263Z,101014.56
2022-10-23T11:29:02.154Z,101012.97
2022-10-23T11:32:10.361Z,101010.84
2022-10-23T11:35:24.341Z,101016.28
2022-10-23T11:38:32.067Z,101011.13
2022-10-23T11:41:34.750Z,101011.34
2022-10-23T11:44:44.237Z,101007.75
2022-10-23T11:47:58.647Z,100999.97
2022-10-23T11:51:05.233Z,101001.97
2022-10-23T11:54:16.731Z,101002.59
2022-10-23T11:57:19.371Z,101001.97
2022-10-23T12:00:22.538Z,101009.72
2022-10-23T12:03:40.657Z,101005.41
2022-10-23T12:06:49.735Z,100988.41
2022-10-23T12:10:05.756Z,100991.84
2022-10-23T12:13:37.297Z,100987.91
2022-10-23T12:16:39.828Z,100990.56
2022-10-23T12:19:48.403Z,100976.50
2022-10-23T12:22:58.877Z,100973.34
2022-10-23T12:26:19.918Z,100967.72
2022-10-23T12:29:48.667Z,100957.16
2022-10-23T12:33:12.181Z,100969.03
2022-10-23T12:36:37.730Z,100964.56
2022-10-23T12:39:40.776Z,100956.81
2022-10-23T12:42:52.696Z,100958.16
2022-10-23T12:45:57.273Z,100950.72
2022-10-23T12:49:01.770Z,100946.53
2022-10-23T12:52:06.718Z,100952.28
2022-10-23T12:55:14.090Z,100953.19
2022-10-23T12:58:25.503Z,100944.63
2022-10-23T13:01:33.858Z,100937.31
2022-10-23T13:04:36.969Z,100938.47
2022-10-23T13:07:45.273Z,100940.59
2022-10-23T13:10:49.172Z,100939.56
2022-10-23T13:13:53.464Z,100931.81
2022-10-23T13:17:00.593Z,100934.78
2022-10-23T13:20:31.376Z,100921.59
2022-10-23T13:23:35.466Z,100925.03
2022-10-23T13:26:45.268Z,100917.72
2022-10-23T13:29:47.718Z,100909.94
2022-10-23T13:32:50.219Z,100922.94
2022-10-23T13:36:20.435Z,100907.75
2022-10-23T13:39:34.194Z,100901.50
2022-10-23T13:42:36.531Z,100896.88
2022-10-23T13:45:41.340Z,100905.00
2022-10-23T13:48:43.912Z,100895.59
2022-10-23T13:51:53.731Z,100891.44
2022-10-23T13:54:56.019Z,100905.00
2022-10-23T13:57:58.521Z,100897.13
2022-10-23T14:01:01.058Z,100884.84
2022-10-23T14:04:05.504Z,100883.88
2022-10-23T14:07:07.720Z,100887.66
2022-10-23T14:10:10.272Z,100875.94
2022-10-23T14:13:12.512Z,100881.53
2022-10-23T14:16:17.686Z,100875.09
2022-10-23T14:19:19.971Z,100858.25
2022-10-23T14:22:22.555Z,100858.41
2022-10-23T14:25:24.856Z,100862.22
2022-10-23T14:28:27.527Z,100857.59
2022-10-23T14:31:29.853Z,100858.09
2022-10-23T14:34:32.433Z,100860.72
2022-10-23T14:37:35.100Z,100852.16
2022-10-23T14:40:38.830Z,100849.81
2022-10-23T14:43:42.970Z,100853.63
2022-10-23T14:46:45.470Z,100845.56
2022-10-23T14:49:52.091Z,100840.41
2022-10-23T14:52:54.667Z,100823.41
2022-10-23T14:56:04.683Z,100820.28
2022-10-23T14:59:08.039Z,100822.72
2022-10-23T15:02:11.835Z,100835.97
2022-10-23T15:05:14.696Z,100818.78
2022-10-23T15:08:16.950Z,100827.91
2022-10-23T15:11:19.473Z,100834.34
2022-10-23T15:14:21.766Z,100825.41
2022-10-23T15:17:24.331Z,100816.97
2022-10-23T15:20:26.689Z,100800.63
2022-10-23T15:23:29.162Z,100788.59
2022-10-23T15:26:31.837Z,100790.72
2022-10-23T15:29:34.360Z,100790.41
2022-10-23T15:32:36.870Z,100786.44
2022-10-23T15:35:39.410Z,100797.34
2022-10-23T15:38:42.026Z,100807.56
2022-10-23T15:41:45.063Z,100807.91
2022-10-23T15:44:47.361Z,100810.06
2022-10-23T15:47:52.708Z,100806.25
2022-10-23T15:50:55.640Z,100813.34
2022-10-23T15:53:58.246Z,100814.50
2022-10-23T15:57:01.420Z,100812.53
2022-10-23T16:00:05.984Z,100815.66
2022-10-23T16:03:10.903Z,100804.75
2022-10-23T16:06:15.855Z,100807.72
2022-10-23T16:09:18.143Z,100820.44
2022-10-23T16:12:20.780Z,100819.97
2022-10-23T16:15:23.106Z,100836.16
2022-10-23T16:18:25.734Z,100825.94
2022-10-23T16:21:31.405Z,100830.69
2022-10-23T16:24:34.255Z,100828.22
2022-10-23T16:27:36.544Z,100830.53
2022-10-23T16:30:43.567Z,100834.34
2022-10-23T16:33:46.570Z,100849.03
2022-10-23T16:36:49.652Z,100860.13
2022-10-23T16:39:52.543Z,100857.81
2022-10-23T16:42:59.382Z,100854.81
2022-10-23T16:46:02.268Z,100844.63
2022-10-23T16:49:06.089Z,100849.25
2022-10-23T16:52:08.602Z,100838.34
2022-10-23T16:55:11.192Z,100846.09
2022-10-23T16:58:13.452Z,100839.84
2022-10-23T17:01:19.539Z,100860.16
2022-10-23T17:04:21.883Z,100862.44
2022-10-23T17:07:24.528Z,100863.59
2022-10-23T17:10:27.133Z,100867.56
2022-10-23T17:13:29.805Z,100880.78
2022-10-23T17:16:45.654Z,100880.28
2022-10-23T17:19:48.265Z,100877.81
2022-10-23T17:22:50.495Z,100869.16
2022-10-23T17:25:53.494Z,100864.94
2022-10-23T17:29:00.516Z,100869.50
2022-10-23T17:32:03.249Z,100862.56
2022-10-23T17:35:08.113Z,100848.03
2022-10-23T17:38:11.855Z,100852.31
2022-10-23T17:41:16.514Z,100854.63
2022-10-23T17:44:19.206Z,100861.22
2022-10-23T17:47:21.467Z,100861.56
2022-10-23T17:50:24.078Z,100856.59
2022-10-23T17:53:26.371Z,100840.41
2022-10-23T17:56:31.118Z,100843.56
2022-10-23T17:59:33.343Z,100833.31
2022-10-23T18:02:35.963Z,100837.75
2022-10-23T18:08:43.319Z,100840.37
2022-10-23T18:11:48.134Z,100839.38
2022-10-23T18:14:50.778Z,100845.81
2022-10-23T18:17:56.150Z,100843.69
2022-10-23T18:20:59.403Z,100842.19
2022-10-23T18:24:02.489Z,100856.38
2022-10-23T18:27:04.747Z,100849.09
2022-10-23T18:30:07.914Z,100853.25
2022-10-23T18:33:10.159Z,100852.75
2022-10-23T18:36:22.757Z,100851.91
2022-10-23T18:39:25.890Z,100845.31
2022-10-23T18:42:28.434Z,100844.47
2022-10-23T18:45:31.676Z,100841.66
2022-10-23T18:48:35.314Z,100837.22
2022-10-23T18:51:38.130Z,100840.50
2022-10-23T18:54:40.590Z,100835.06
2022-10-23T18:57:43.232Z,100839.50
2022-10-23T19:00:46.733Z,100845.12
2022-10-23T19:03:49.926Z,100836.72
2022-10-23T19:06:52.616Z,100838.38
2022-10-23T19:09:55.595Z,100842.31
2022-10-23T19:12:58.110Z,100832.25
2022-10-23T19:16:00.539Z,100831.44
2022-10-23T19:19:25.368Z,100837.03
2022-10-23T19:22:30.568Z,100826.81
2022-10-23T19:25:35.446Z,100841.97
2022-10-23T19:28:44.408Z,100837.00
2022-10-23T19:31:49.377Z,100842.81
2022-10-23T19:34:51.815Z,100847.41
2022-10-23T19:37:54.518Z,100849.88
2022-10-23T19:40:57.039Z,100845.91
2022-10-23T19:43:59.893Z,100843.63
2022-10-23T19:47:03.439Z,100843.44
2022-10-23T19:50:07.915Z,100829.56
2022-10-23T19:53:10.526Z,100837.34
2022-10-23T19:56:13.138Z,100834.34
2022-10-23T19:59:15.753Z,100833.84
2022-10-23T20:02:20.078Z,100842.44
2022-10-23T20:05:22.881Z,100845.75
2022-10-23T20:08:25.114Z,100848.38
2022-10-23T20:11:30.129Z,100857.78
2022-10-23T20:14:32.969Z,100851.03
2022-10-23T20:17:35.901Z,100852.19
2022-10-23T20:20:42.141Z,100856.97
2022-10-23T20:23:45.558Z,100847.22
2022-10-23T20:26:50.454Z,100847.22
2022-10-23T20:29:52.951Z,100846.22
2022-10-23T20:32:55.661Z,100847.03
2022-10-23T20:35:58.214Z,100842.09
2022-10-23T20:39:09.220Z,100833.97
2022-10-23T20:42:11.906Z,100833.16
2022-10-23T20:45:14.242Z,100832.00
2022-10-23T20:48:16.864Z,100820.63
2022-10-23T20:51:21.322Z,100823.75
2022-10-23T20:54:26.922Z,100818.97
2022-10-23T20:57:29.280Z,100809.25
2022-10-23T21:00:32.104Z,100802.81
2022-10-23T21:03:34.686Z,100802.28
2022-10-23T21:06:46.098Z,100798.84
2022-10-23T21:09:59.494Z,100796.87
2022-10-23T21:13:02.159Z,100794.41
2022-10-23T21:16:17.375Z,100798.84
2022-10-23T21:19:19.982Z,100803.28
2022-10-23T21:22:22.245Z,100797.50
2022-10-23T21:25:24.783Z,100789.91
2022-10-23T21:28:27.052Z,100797.50
2022-10-23T21:31:29.604Z,100794.69
2022-10-23T21:34:31.909Z,100800.00
2022-10-23T21:37:34.552Z,100802.28
2022-10-23T21:40:36.789Z,100809.53
2022-10-23T21:43:39.459Z,100799.00
2022-10-23T21:46:41.898Z,100802.28
2022-10-23T21:49:44.791Z,100812.69
2022-10-23T21:52:52.061Z,100815.81
2022-10-23T21:55:56.180Z,100815.00
2022-10-23T21:59:00.778Z,100805.44
2022-10-23T22:02:04.297Z,100795.19
2022-10-23T22:05:10.366Z,100794.66
2022-10-23T22:08:12.870Z,100777.66
2022-10-23T22:11:16.262Z,100790.88
2022-10-23T22:14:19.190Z,100788.09
2022-10-23T22:17:21.755Z,100792.00
2022-10-23T22:20:24.053Z,100794.19
2022-10-23T22:23:26.887Z,100803.41
2022-10-23T22:26:31.291Z,100798.97
2022-10-23T22:29:34.104Z,100788.72
2022-10-23T22:32:36.322Z,100794.31
2022-10-23T22:35:39.293Z,100795.47
2022-10-23T22:38:42.173Z,100804.72
2022-10-23T22:41:44.702Z,100802.22
2022-10-23T22:44:47.058Z,100816.22
2022-10-23T22:47:49.552Z,100812.44
2022-10-23T22:50:51.864Z,100807.97
2022-10-23T22:53:55.234Z,100799.25
2022-10-23T22:56:57.952Z,100797.91
2022-10-23T23:00:00.954Z,100787.62
2022-10-23T23:03:03.287Z,100789.44
2022-10-23T23:06:08.823Z,100777.41
2022-10-23T23:09:14.159Z,100782.63
2022-10-23T23:12:20.268Z,100777.16
2022-10-23T23:15:22.666Z,100782.28
2022-10-23T23:18:25.591Z,100779.97
2022-10-23T23:21:29.290Z,100776.03
2022-10-23T23:24:32.196Z,100780.47
2022-10-23T23:27:34.475Z,100781.12
2022-10-23T23:30:37.097Z,100783.72
2022-10-23T23:33:39.388Z,100787.69
2022-10-23T23:36:42.026Z,100786.84
2022-10-23T23:39:44.252Z,100785.72
2022-10-23T23:42:47.173Z,100776.16
2022-10-23T23:45:49.526Z,100778.47
2022-10-23T23:48:52.139Z,100767.88
2022-10-23T23:51:54.366Z,100761.94
2022-10-23T23:54:57.077Z,100775.13
2022-10-23T23:57:59.291Z,100771.78
